createdAt,value
2017-11-05T00:00:25.672Z,6.58
2017-11-05T00:02:53.969Z,6.58
2017-11-05T00:05:22.289Z,6.02
2017-11-05T00:07:50.589Z,6.26
2017-11-05T00:10:18.933Z,7.38
2017-11-05T00:12:47.220Z,6.86
2017-11-05T00:15:15.532Z,6.34
2017-11-05T00:17:43.853Z,6.88
2017-11-05T00:20:12.147Z,6.00
2017-11-05T00:22:40.453Z,5.62
2017-11-05T00:25:08.744Z,5.16
2017-11-05T00:27:37.072Z,4.96
2017-11-05T00:30:05.365Z,4.98
2017-11-05T00:32:33.653Z,4.86
2017-11-05T00:35:01.962Z,5.04
2017-11-05T00:37:30.256Z,5.24
2017-11-05T00:39:58.568Z,4.46
2017-11-05T00:42:26.860Z,5.56
2017-11-05T00:44:55.197Z,4.60
2017-11-05T00:47:23.489Z,4.14
2017-11-05T00:49:51.785Z,3.96
2017-11-05T00:52:20.104Z,4.32
2017-11-05T00:54:48.400Z,4.22
2017-11-05T00:57:16.743Z,4.56
2017-11-05T00:59:45.040Z,4.58
2017-11-05T01:02:12.611Z,4.58
2017-11-05T01:04:40.913Z,4.60
2017-11-05T01:07:09.209Z,4.20
2017-11-05T01:09:37.525Z,4.34
2017-11-05T01:12:05.826Z,4.26
2017-11-05T01:14:34.151Z,4.50
2017-11-05T01:17:02.457Z,5.12
2017-11-05T01:19:30.789Z,4.94
2017-11-05T01:21:59.080Z,4.54
2017-11-05T01:24:27.365Z,5.48
2017-11-05T01:26:55.672Z,4.88
2017-11-05T01:29:23.977Z,4.40
2017-11-05T01:31:52.290Z,4.78
2017-11-05T01:34:20.586Z,4.38
2017-11-05T01:36:48.161Z,5.60
2017-11-05T01:39:16.457Z,5.10
2017-11-05T01:41:44.745Z,4.78
2017-11-05T01:44:13.070Z,4.74
2017-11-05T01:46:41.364Z,5.72
2017-11-05T01:49:09.682Z,5.08
2017-11-05T01:51:37.984Z,5.02
2017-11-05T01:54:06.329Z,4.90
2017-11-05T01:56:34.633Z,5.04
2017-11-05T01:59:02.924Z,5.10
2017-11-05T02:01:31.236Z,4.62
2017-11-05T02:04:02.357Z,5.48
2017-11-05T02:06:30.681Z,6.42
2017-11-05T02:08:58.976Z,5.40
2017-11-05T02:11:27.309Z,5.44
2017-11-05T02:13:55.610Z,5.30
2017-11-05T02:16:23.908Z,5.42
2017-11-05T02:18:52.226Z,5.56
2017-11-05T02:21:20.520Z,5.38
2017-11-05T02:23:48.837Z,5.52
2017-11-05T02:26:17.127Z,6.08
2017-11-05T02:28:45.456Z,7.68
2017-11-05T02:31:13.752Z,6.12
2017-11-05T02:33:41.305Z,8.80
2017-11-05T02:36:09.637Z,9.16
2017-11-05T02:38:37.943Z,8.32
2017-11-05T02:41:06.257Z,9.74
2017-11-05T02:43:34.561Z,10.18
2017-11-05T02:46:02.897Z,9.60
2017-11-05T02:48:31.194Z,10.18
2017-11-05T02:50:59.491Z,9.70
2017-11-05T02:53:27.821Z,10.72
2017-11-05T02:55:56.124Z,9.42
2017-11-05T02:58:24.452Z,11.42
2017-11-05T03:00:52.754Z,9.40
2017-11-05T03:03:21.097Z,10.40
2017-11-05T03:05:49.405Z,10.12
2017-11-05T03:08:17.702Z,10.00
2017-11-05T03:10:46.025Z,9.92
2017-11-05T03:13:14.330Z,10.24
2017-11-05T03:15:42.646Z,9.72
2017-11-05T03:18:10.945Z,9.82
2017-11-05T03:20:39.297Z,9.92
2017-11-05T03:23:07.599Z,10.28
2017-11-05T03:25:35.907Z,9.46
2017-11-05T03:28:04.212Z,9.72
2017-11-05T03:30:32.509Z,11.16
2017-11-05T03:33:00.834Z,10.30
2017-11-05T03:35:29.125Z,9.20
2017-11-05T03:37:57.477Z,9.28
2017-11-05T03:40:25.781Z,9.88
2017-11-05T03:42:54.081Z,11.10
2017-11-05T03:45:22.421Z,8.96
2017-11-05T03:47:50.721Z,9.88
2017-11-05T03:50:19.048Z,10.66
2017-11-05T03:52:47.345Z,10.28
2017-11-05T03:55:15.677Z,9.82
2017-11-05T03:57:43.982Z,10.74
2017-11-05T04:00:12.351Z,10.48
2017-11-05T04:02:40.689Z,9.98
2017-11-05T04:05:08.225Z,10.18
2017-11-05T04:07:36.550Z,11.94
2017-11-05T04:10:04.853Z,11.50
2017-11-05T04:12:33.210Z,10.96
2017-11-05T04:15:01.500Z,9.86
2017-11-05T04:17:29.029Z,7.54
2017-11-05T04:19:57.340Z,6.50
2017-11-05T04:22:25.638Z,5.70
2017-11-05T04:24:53.948Z,5.32
2017-11-05T04:27:22.259Z,4.88
2017-11-05T04:29:50.605Z,4.44
2017-11-05T04:32:18.913Z,4.02
2017-11-05T04:34:47.217Z,3.52
2017-11-05T04:37:15.526Z,3.48
2017-11-05T04:39:43.829Z,3.50
2017-11-05T04:42:12.149Z,3.20
2017-11-05T04:44:40.454Z,2.54
2017-11-05T04:47:08.773Z,3.12
2017-11-05T04:49:37.082Z,3.08
2017-11-05T04:52:05.445Z,2.38
2017-11-05T04:54:33.734Z,3.14
2017-11-05T04:57:02.029Z,2.66
2017-11-05T04:59:30.344Z,3.20
2017-11-05T05:01:58.635Z,3.10
2017-11-05T05:04:26.949Z,3.02
2017-11-05T05:06:55.244Z,3.12
2017-11-05T05:09:23.549Z,3.32
2017-11-05T05:11:51.921Z,3.34
2017-11-05T05:14:20.246Z,4.12
2017-11-05T05:16:48.551Z,4.28
2017-11-05T05:19:16.842Z,4.20
2017-11-05T05:21:45.168Z,3.90
2017-11-05T05:24:13.462Z,4.02
2017-11-05T05:26:41.789Z,4.84
2017-11-05T05:29:10.082Z,4.14
2017-11-05T05:31:38.392Z,4.86
2017-11-05T05:34:06.676Z,4.92
2017-11-05T05:36:35.025Z,5.16
2017-11-05T05:39:02.557Z,4.34
2017-11-05T05:41:30.861Z,5.44
2017-11-05T05:43:59.173Z,5.82
2017-11-05T05:46:27.456Z,5.70
2017-11-05T05:48:55.761Z,5.58
2017-11-05T05:51:24.055Z,5.04
2017-11-05T05:53:52.360Z,5.28
2017-11-05T05:56:20.649Z,4.74
2017-11-05T05:58:48.973Z,4.78
2017-11-05T06:01:17.256Z,5.16
2017-11-05T06:03:45.545Z,4.54
2017-11-05T06:06:13.852Z,4.88
2017-11-05T06:08:42.135Z,3.56
2017-11-05T06:11:10.442Z,3.84
2017-11-05T06:13:38.723Z,3.50
2017-11-05T06:16:07.044Z,3.70
2017-11-05T06:18:35.330Z,3.40
2017-11-05T06:21:03.652Z,3.88
2017-11-05T06:23:31.941Z,3.78
2017-11-05T06:26:00.226Z,3.70
2017-11-05T06:28:28.529Z,3.14
2017-11-05T06:30:56.821Z,3.62
2017-11-05T06:33:25.144Z,3.55
2017-11-05T06:35:53.433Z,3.40
2017-11-05T06:38:21.745Z,3.62
2017-11-05T06:40:50.033Z,3.52
2017-11-05T06:43:18.358Z,3.66
2017-11-05T06:45:46.651Z,4.20
2017-11-05T06:48:14.164Z,4.26
2017-11-05T06:50:42.470Z,4.02
2017-11-05T06:53:10.770Z,3.98
2017-11-05T06:55:39.085Z,4.25
2017-11-05T06:58:07.370Z,3.48
2017-11-05T07:00:35.685Z,4.06
2017-11-05T07:03:03.982Z,3.72
2017-11-05T07:05:32.279Z,3.70
2017-11-05T07:08:00.598Z,4.14
2017-11-05T07:10:28.897Z,3.56
2017-11-05T07:12:57.213Z,4.07
2017-11-05T07:15:25.496Z,3.70
2017-11-05T07:17:53.808Z,3.97
2017-11-05T07:20:22.098Z,4.50
2017-11-05T07:22:50.429Z,4.43
2017-11-05T07:25:18.730Z,5.87
2017-11-05T07:27:47.027Z,4.78
2017-11-05T07:30:15.352Z,4.63
2017-11-05T07:32:43.640Z,6.46
2017-11-05T07:35:11.990Z,4.92
2017-11-05T07:37:40.285Z,4.14
2017-11-05T07:40:08.601Z,6.70
2017-11-05T07:42:36.895Z,5.64
2017-11-05T07:45:05.213Z,5.26
2017-11-05T07:47:33.521Z,7.72
2017-11-05T07:50:01.805Z,6.72
2017-11-05T07:52:29.349Z,5.30
2017-11-05T07:54:57.644Z,4.90
2017-11-05T07:57:25.956Z,5.64
2017-11-05T07:59:54.244Z,4.10
2017-11-05T08:02:22.561Z,4.27
2017-11-05T08:04:50.864Z,4.02
2017-11-05T08:07:19.166Z,4.47
2017-11-05T08:09:47.486Z,4.20
2017-11-05T08:12:15.777Z,4.33
2017-11-05T08:14:43.335Z,3.72
2017-11-05T08:17:11.627Z,3.70
2017-11-05T08:19:39.940Z,3.38
2017-11-05T08:22:07.465Z,3.45
2017-11-05T08:24:35.774Z,4.08
2017-11-05T08:27:04.082Z,3.85
2017-11-05T08:29:32.412Z,3.50
2017-11-05T08:32:00.717Z,4.80
2017-11-05T08:34:29.012Z,12.74
2017-11-05T08:36:57.327Z,5.60
2017-11-05T08:39:25.658Z,3.52
2017-11-05T08:41:53.981Z,5.20
2017-11-05T08:44:22.281Z,3.80
2017-11-05T08:46:50.611Z,4.10
2017-11-05T08:49:18.914Z,4.50
2017-11-05T08:51:47.240Z,3.80
2017-11-05T08:54:15.541Z,4.30
2017-11-05T08:56:43.826Z,5.18
2017-11-05T08:59:12.152Z,5.18
2017-11-05T09:01:40.478Z,6.52
2017-11-05T09:04:08.792Z,3.70
2017-11-05T09:06:37.100Z,3.58
2017-11-05T09:09:05.429Z,3.66
2017-11-05T09:11:33.732Z,3.80
2017-11-05T09:14:02.046Z,4.70
2017-11-05T09:16:29.569Z,4.34
2017-11-05T09:18:57.908Z,3.80
2017-11-05T09:21:26.207Z,4.18
2017-11-05T09:23:54.511Z,3.80
2017-11-05T09:26:22.821Z,4.72
2017-11-05T09:28:51.111Z,4.92
2017-11-05T09:31:19.434Z,4.76
2017-11-05T09:33:47.754Z,4.50
2017-11-05T09:36:16.072Z,4.73
2017-11-05T09:38:44.373Z,4.80
2017-11-05T09:41:12.722Z,4.20
2017-11-05T09:43:41.028Z,5.36
2017-11-05T09:46:09.338Z,5.88
2017-11-05T09:48:37.653Z,5.48
2017-11-05T09:51:06.119Z,5.50
2017-11-05T09:53:34.975Z,4.84
2017-11-05T09:56:03.308Z,6.06
2017-11-05T09:58:31.637Z,6.22
2017-11-05T10:00:59.942Z,5.30
2017-11-05T10:03:28.285Z,5.78
2017-11-05T10:05:56.593Z,6.60
2017-11-05T10:08:24.885Z,7.20
2017-11-05T10:10:53.211Z,6.06
2017-11-05T10:13:21.507Z,7.00
2017-11-05T10:15:49.829Z,7.40
2017-11-05T10:18:19.420Z,7.10
2017-11-05T10:20:47.869Z,8.48
2017-11-05T10:23:16.171Z,7.94
2017-11-05T10:25:44.465Z,7.90
2017-11-05T10:28:12.782Z,9.70
2017-11-05T10:30:41.076Z,8.94
2017-11-05T10:33:08.631Z,7.98
2017-11-05T10:35:36.939Z,7.70
2017-11-05T10:38:05.274Z,7.26
2017-11-05T10:40:33.575Z,7.80
2017-11-05T10:43:01.879Z,7.28
2017-11-05T10:45:30.201Z,6.84
2017-11-05T10:47:58.493Z,7.52
2017-11-05T10:50:26.817Z,7.28
2017-11-05T10:52:55.114Z,7.50
2017-11-05T10:55:23.481Z,8.68
2017-11-05T10:57:51.778Z,7.06
2017-11-05T11:00:20.113Z,6.60
2017-11-05T11:02:48.404Z,6.90
2017-11-05T11:05:16.710Z,6.04
2017-11-05T11:07:45.052Z,8.66
2017-11-05T11:10:13.354Z,7.60
2017-11-05T11:12:41.686Z,8.12
2017-11-05T11:15:09.985Z,8.32
2017-11-05T11:17:38.300Z,9.92
2017-11-05T11:20:06.596Z,6.30
2017-11-05T11:22:34.927Z,6.90
2017-11-05T11:25:02.462Z,6.36
2017-11-05T11:27:30.777Z,6.70
2017-11-05T11:29:59.089Z,6.02
2017-11-05T11:32:27.388Z,7.42
2017-11-05T11:34:55.708Z,5.98
2017-11-05T11:37:23.232Z,5.92
2017-11-05T11:39:51.549Z,5.86
2017-11-05T11:42:19.854Z,6.08
2017-11-05T11:44:48.189Z,5.34
2017-11-05T11:47:16.476Z,5.50
2017-11-05T11:49:44.780Z,5.12
2017-11-05T11:52:13.097Z,5.18
2017-11-05T11:54:41.394Z,5.62
2017-11-05T11:57:08.942Z,6.36
2017-11-05T11:59:37.253Z,4.98
2017-11-05T12:02:05.590Z,10.60
2017-11-05T12:04:33.942Z,5.18
2017-11-05T12:07:02.306Z,5.68
2017-11-05T12:09:30.593Z,5.18
2017-11-05T12:11:59.533Z,5.60
2017-11-05T12:14:27.857Z,5.70
2017-11-05T12:16:56.147Z,6.36
2017-11-05T12:19:23.766Z,6.12
2017-11-05T12:21:52.668Z,6.08
2017-11-05T12:24:21.051Z,6.34
2017-11-05T12:26:49.349Z,5.88
2017-11-05T12:29:17.016Z,5.70
2017-11-05T12:31:45.312Z,5.60
2017-11-05T12:34:14.105Z,5.90
2017-11-05T12:36:41.706Z,6.28
2017-11-05T12:39:10.053Z,6.38
2017-11-05T12:41:38.670Z,6.52
2017-11-05T12:44:06.969Z,5.98
2017-11-05T12:46:35.285Z,5.84
2017-11-05T12:49:03.585Z,6.22
2017-11-05T12:51:31.901Z,6.38
2017-11-05T12:54:00.192Z,6.22
2017-11-05T12:56:28.517Z,6.54
2017-11-05T12:58:56.805Z,5.62
2017-11-05T13:01:25.136Z,6.20
2017-11-05T13:03:53.422Z,5.98
2017-11-05T13:06:21.721Z,6.10
2017-11-05T13:08:50.036Z,6.30
2017-11-05T13:11:18.330Z,6.10
2017-11-05T13:13:46.649Z,6.10
2017-11-05T13:16:14.933Z,5.18
2017-11-05T13:18:43.256Z,6.40
2017-11-05T13:21:11.553Z,7.04
2017-11-05T13:23:39.870Z,5.20
2017-11-05T13:26:08.165Z,5.80
2017-11-05T13:28:36.477Z,5.90
2017-11-05T13:31:04.789Z,6.52
2017-11-05T13:33:33.096Z,6.50
2017-11-05T13:36:00.622Z,7.96
2017-11-05T13:38:28.950Z,12.56
2017-11-05T13:40:57.241Z,8.92
2017-11-05T13:43:25.558Z,17.32
2017-11-05T13:45:53.860Z,5.74
2017-11-05T13:48:22.180Z,6.82
2017-11-05T13:50:50.473Z,12.52
2017-11-05T13:53:18.786Z,5.14
2017-11-05T13:55:47.075Z,7.02
2017-11-05T13:58:15.400Z,6.78
2017-11-05T14:00:43.691Z,8.80
2017-11-05T14:03:12.011Z,3.96
2017-11-05T14:05:40.313Z,4.34
2017-11-05T14:08:08.643Z,5.04
2017-11-05T14:10:36.944Z,8.34
2017-11-05T14:13:05.257Z,4.94
2017-11-05T14:15:33.557Z,4.96
2017-11-05T14:18:01.907Z,4.48
2017-11-05T14:20:30.205Z,5.50
2017-11-05T14:22:58.513Z,5.70
2017-11-05T14:25:26.810Z,12.40
2017-11-05T14:27:55.117Z,28.54
2017-11-05T14:30:23.408Z,8.82
2017-11-05T14:32:51.721Z,22.86
2017-11-05T14:35:20.019Z,6.42
2017-11-05T14:37:48.355Z,8.64
2017-11-05T14:40:16.653Z,6.48
2017-11-05T14:42:44.993Z,7.13
2017-11-05T14:45:13.281Z,7.02
2017-11-05T14:47:41.574Z,6.04
2017-11-05T14:50:09.893Z,5.64
2017-11-05T14:52:38.190Z,6.80
2017-11-05T14:55:06.625Z,6.75
2017-11-05T14:57:34.933Z,14.04
2017-11-05T15:00:03.277Z,11.02
2017-11-05T15:02:31.575Z,10.28
2017-11-05T15:04:59.893Z,7.30
2017-11-05T15:07:28.197Z,6.14
2017-11-05T15:09:56.515Z,6.80
2017-11-05T15:12:24.813Z,7.52
2017-11-05T15:14:53.128Z,6.40
2017-11-05T15:17:21.409Z,6.18
2017-11-05T15:19:49.719Z,6.40
2017-11-05T15:22:17.308Z,6.56
2017-11-05T15:24:45.628Z,6.63
2017-11-05T15:27:13.933Z,5.80
2017-11-05T15:29:42.251Z,10.58
2017-11-05T15:32:10.551Z,14.08
2017-11-05T15:34:38.116Z,13.92
2017-11-05T15:37:06.421Z,7.73
2017-11-05T15:39:34.732Z,7.64
2017-11-05T15:42:03.320Z,6.78
2017-11-05T15:44:31.632Z,8.22
2017-11-05T15:46:59.927Z,8.26
2017-11-05T15:49:28.240Z,6.50
2017-11-05T15:51:56.530Z,5.58
2017-11-05T15:54:24.853Z,6.33
2017-11-05T15:56:53.160Z,6.67
2017-11-05T15:59:21.559Z,6.37
2017-11-05T16:01:49.856Z,9.67
2017-11-05T16:04:18.178Z,6.52
2017-11-05T16:06:46.468Z,7.18
2017-11-05T16:09:14.789Z,5.96
2017-11-05T16:11:43.086Z,5.62
2017-11-05T16:14:11.399Z,6.00
2017-11-05T16:16:39.692Z,5.60
2017-11-05T16:19:08.037Z,5.58
2017-11-05T16:21:36.340Z,6.08
2017-11-05T16:24:04.637Z,5.93
2017-11-05T16:26:32.952Z,5.32
2017-11-05T16:29:01.254Z,5.52
2017-11-05T16:31:29.570Z,5.33
2017-11-05T16:33:57.866Z,5.15
2017-11-05T16:36:26.177Z,4.63
2017-11-05T16:38:54.479Z,5.25
2017-11-05T16:41:22.813Z,5.85
2017-11-05T16:43:51.105Z,6.67
2017-11-05T16:46:18.653Z,5.63
2017-11-05T16:48:46.951Z,5.97
2017-11-05T16:51:15.257Z,5.80
2017-11-05T16:53:43.545Z,5.25
2017-11-05T16:56:11.861Z,5.40
2017-11-05T16:58:40.149Z,5.82
2017-11-05T17:01:08.468Z,5.07
2017-11-05T17:03:36.756Z,5.63
2017-11-05T17:06:05.060Z,5.15
2017-11-05T17:08:32.588Z,5.48
2017-11-05T17:11:00.905Z,5.50
2017-11-05T17:13:29.196Z,11.10
2017-11-05T17:15:57.512Z,11.07
2017-11-05T17:18:25.815Z,24.97
2017-11-05T17:20:54.143Z,22.62
2017-11-05T17:23:22.438Z,12.48
2017-11-05T17:25:50.758Z,15.17
2017-11-05T17:28:19.049Z,11.17
2017-11-05T17:30:47.357Z,6.38
2017-11-05T17:33:14.897Z,5.48
2017-11-05T17:35:43.205Z,92.87
2017-11-05T17:38:11.504Z,48.42
2017-11-05T17:40:39.817Z,57.58
2017-11-05T17:43:07.345Z,27.15
2017-11-05T17:45:35.658Z,35.25
2017-11-05T17:48:03.959Z,54.48
2017-11-05T17:50:32.273Z,29.15
2017-11-05T17:53:00.567Z,26.15
2017-11-05T17:55:28.897Z,14.58
2017-11-05T17:57:57.189Z,8.13
2017-11-05T18:00:25.506Z,13.25
2017-11-05T18:02:53.825Z,14.50
2017-11-05T18:05:22.118Z,16.00
2017-11-05T18:07:50.433Z,13.83
2017-11-05T18:10:18.744Z,9.82
2017-11-05T18:12:47.103Z,8.58
2017-11-05T18:15:15.403Z,12.15
2017-11-05T18:17:43.854Z,9.50
2017-11-05T18:20:12.144Z,9.72
2017-11-05T18:22:40.476Z,11.73
2017-11-05T18:25:08.786Z,9.58
2017-11-05T18:27:37.119Z,10.88
2017-11-05T18:30:05.440Z,9.65
2017-11-05T18:32:33.820Z,10.63
2017-11-05T18:35:02.122Z,11.87
2017-11-05T18:37:30.438Z,14.80
2017-11-05T18:39:58.737Z,12.68
2017-11-05T18:42:27.065Z,18.50
2017-11-05T18:44:56.006Z,18.13
2017-11-05T18:47:24.341Z,12.62
2017-11-05T18:49:52.640Z,11.68
2017-11-05T18:52:20.953Z,18.07
2017-11-05T18:54:49.254Z,15.55
2017-11-05T18:57:17.573Z,13.13
2017-11-05T18:59:45.868Z,8.18
2017-11-05T19:02:14.185Z,8.18
2017-11-05T19:04:42.469Z,4.87
2017-11-05T19:07:10.773Z,5.53
2017-11-05T19:09:39.064Z,6.92
2017-11-05T19:12:07.388Z,8.43
2017-11-05T19:14:34.913Z,10.40
2017-11-05T19:17:03.234Z,8.35
2017-11-05T19:19:31.537Z,7.53
2017-11-05T19:21:59.854Z,6.42
2017-11-05T19:24:28.151Z,5.67
2017-11-05T19:26:56.517Z,6.12
2017-11-05T19:29:24.833Z,25.02
2017-11-05T19:31:53.152Z,8.55
2017-11-05T19:34:21.445Z,7.05
2017-11-05T19:36:49.742Z,5.62
2017-11-05T19:39:18.054Z,6.03
2017-11-05T19:41:46.347Z,6.70
2017-11-05T19:44:14.692Z,6.93
2017-11-05T19:46:43.026Z,7.27
2017-11-05T19:49:11.334Z,6.42
2017-11-05T19:51:39.625Z,6.03
2017-11-05T19:54:07.954Z,6.13
2017-11-05T19:56:36.292Z,6.77
2017-11-05T19:59:04.714Z,5.57
2017-11-05T20:01:33.014Z,24.93
2017-11-05T20:04:01.328Z,23.67
2017-11-05T20:06:29.629Z,20.55
2017-11-05T20:08:57.953Z,11.57
2017-11-05T20:11:26.248Z,10.43
2017-11-05T20:13:54.572Z,9.73
2017-11-05T20:16:22.893Z,5.40
2017-11-05T20:18:51.214Z,7.48
2017-11-05T20:21:19.506Z,6.65
2017-11-05T20:23:47.821Z,9.15
2017-11-05T20:26:16.116Z,8.27
2017-11-05T20:28:44.421Z,7.58
2017-11-05T20:31:12.720Z,6.25
2017-11-05T20:33:41.025Z,10.53
2017-11-05T20:36:08.550Z,6.53
2017-11-05T20:38:36.927Z,6.68
2017-11-05T20:41:05.209Z,6.65
2017-11-05T20:43:33.534Z,6.73
2017-11-05T20:46:01.820Z,5.70
2017-11-05T20:48:29.351Z,6.73
2017-11-05T20:50:57.658Z,6.05
2017-11-05T20:53:25.957Z,63.05
2017-11-05T20:55:54.278Z,77.50
2017-11-05T20:58:21.801Z,41.32
2017-11-05T21:00:50.145Z,14.57
2017-11-05T21:03:18.440Z,24.12
2017-11-05T21:05:46.734Z,47.40
2017-11-05T21:08:15.048Z,26.88
2017-11-05T21:10:43.352Z,21.15
2017-11-05T21:13:11.664Z,20.77
2017-11-05T21:15:39.956Z,11.00
2017-11-05T21:18:08.300Z,7.67
2017-11-05T21:20:36.588Z,24.52
2017-11-05T21:23:04.897Z,14.90
2017-11-05T21:25:33.208Z,14.52
2017-11-05T21:28:01.502Z,12.38
2017-11-05T21:30:29.804Z,8.02
2017-11-05T21:32:58.093Z,7.20
2017-11-05T21:35:26.420Z,6.92
2017-11-05T21:37:54.717Z,7.12
2017-11-05T21:40:23.000Z,7.40
2017-11-05T21:42:51.309Z,7.40
2017-11-05T21:45:19.599Z,8.98
2017-11-05T21:47:47.911Z,7.80
2017-11-05T21:50:16.205Z,8.65
2017-11-05T21:52:44.516Z,7.75
2017-11-05T21:55:12.805Z,8.10
2017-11-05T21:57:41.089Z,7.57
2017-11-05T22:00:09.406Z,8.90
2017-11-05T22:02:37.686Z,7.98
2017-11-05T22:05:06.011Z,8.07
2017-11-05T22:07:34.310Z,8.30
2017-11-05T22:10:02.597Z,7.42
2017-11-05T22:12:30.902Z,7.67
2017-11-05T22:14:59.184Z,7.58
2017-11-05T22:17:27.497Z,8.18
2017-11-05T22:19:55.793Z,9.02
2017-11-05T22:22:24.093Z,7.85
2017-11-05T22:24:52.408Z,8.62
2017-11-05T22:27:20.694Z,7.70
2017-11-05T22:29:49.038Z,7.87
2017-11-05T22:32:17.320Z,8.17
2017-11-05T22:34:45.609Z,7.67
2017-11-05T22:37:13.912Z,8.48
2017-11-05T22:39:42.217Z,9.52
2017-11-05T22:42:10.529Z,12.35
2017-11-05T22:44:38.820Z,11.20
2017-11-05T22:47:07.141Z,11.42
2017-11-05T22:49:35.437Z,10.38
2017-11-05T22:52:03.729Z,10.72
2017-11-05T22:54:32.050Z,12.23
2017-11-05T22:57:00.340Z,10.93
2017-11-05T22:59:28.660Z,11.33
2017-11-05T23:01:56.949Z,9.58
2017-11-05T23:04:25.281Z,10.43
2017-11-05T23:06:53.565Z,9.30
2017-11-05T23:09:21.857Z,10.02
2017-11-05T23:11:50.165Z,8.67
2017-11-05T23:14:18.462Z,10.38
2017-11-05T23:16:46.780Z,10.20
2017-11-05T23:19:15.065Z,9.73
2017-11-05T23:21:43.406Z,9.20
2017-11-05T23:24:11.692Z,9.10
2017-11-05T23:26:39.994Z,8.60
2017-11-05T23:29:08.308Z,10.90
2017-11-05T23:31:36.598Z,12.50
2017-11-05T23:34:04.921Z,9.65
2017-11-05T23:36:33.217Z,10.50
2017-11-05T23:39:01.541Z,9.53
2017-11-05T23:41:29.833Z,10.08
2017-11-05T23:43:58.123Z,10.58
2017-11-05T23:46:26.434Z,10.30
2017-11-05T23:48:54.724Z,10.15
2017-11-05T23:51:23.050Z,10.62
2017-11-05T23:53:51.344Z,10.20
2017-11-05T23:56:19.694Z,11.35
2017-11-05T23:58:47.993Z,12.23
